createdAt,value
2022-12-01T00:02:08.016Z,1.52
2022-12-01T00:06:16.306Z,1.58
2022-12-01T00:10:27.343Z,1.52
2022-12-01T00:14:29.445Z,1.44
2022-12-01T00:18:31.472Z,1.48
2022-12-01T00:22:33.988Z,1.43
2022-12-01T00:26:38.280Z,1.47
2022-12-01T00:30:40.487Z,1.40
2022-12-01T00:34:42.622Z,1.42
2022-12-01T00:38:45.440Z,1.40
2022-12-01T00:42:47.557Z,1.44
2022-12-01T00:46:50.123Z,1.45
2022-12-01T00:50:53.542Z,1.40
2022-12-01T00:54:55.694Z,1.50
2022-12-01T00:58:57.770Z,1.50
2022-12-01T01:02:59.842Z,1.20
2022-12-01T01:07:01.903Z,1.22
2022-12-01T01:11:05.531Z,1.39
2022-12-01T01:15:08.613Z,1.36
2022-12-01T01:19:10.783Z,1.19
2022-12-01T01:23:12.916Z,1.31
2022-12-01T01:27:15.052Z,1.33
2022-12-01T01:31:20.944Z,1.40
2022-12-01T01:35:23.488Z,1.42
2022-12-01T01:39:25.517Z,1.55
2022-12-01T01:44:01.881Z,1.50
2022-12-01T01:48:04.537Z,1.58
2022-12-01T01:52:06.679Z,1.54
2022-12-01T01:56:09.361Z,1.57
2022-12-01T02:00:15.577Z,1.54
2022-12-01T02:04:20.680Z,1.46
2022-12-01T02:08:22.973Z,1.35
2022-12-01T02:12:55.877Z,1.46
2022-12-01T02:17:41.505Z,1.41
2022-12-01T02:22:09.281Z,1.46
2022-12-01T02:26:33.498Z,1.34
2022-12-01T02:30:51.455Z,1.22
2022-12-01T02:35:15.777Z,1.22
2022-12-01T02:39:28.104Z,1.28
2022-12-01T02:43:42.471Z,1.26
2022-12-01T02:47:46.132Z,1.19
2022-12-01T02:51:51.149Z,1.19
2022-12-01T02:55:55.829Z,1.21
2022-12-01T03:00:00.122Z,1.08
2022-12-01T03:04:26.845Z,1.05
2022-12-01T03:08:32.877Z,1.02
2022-12-01T03:13:05.720Z,1.04
2022-12-01T03:17:17.325Z,1.01
2022-12-01T03:21:28.472Z,1.03
2022-12-01T03:25:31.965Z,0.91
2022-12-01T03:29:41.539Z,0.97
2022-12-01T03:33:50.591Z,0.98
2022-12-01T03:38:03.103Z,0.98
2022-12-01T03:42:28.234Z,0.84
2022-12-01T03:46:59.221Z,0.84
2022-12-01T03:51:01.178Z,0.84
2022-12-01T03:55:30.298Z,0.87
2022-12-01T03:59:36.544Z,0.88
2022-12-01T04:03:39.237Z,0.82
2022-12-01T04:07:41.336Z,0.86
2022-12-01T04:12:01.958Z,0.85
2022-12-01T04:16:04.392Z,0.84
2022-12-01T04:20:08.017Z,0.81
2022-12-01T04:24:12.606Z,0.79
2022-12-01T04:28:14.929Z,0.81
2022-12-01T04:32:17.105Z,0.82
2022-12-01T04:36:19.188Z,0.69
2022-12-01T04:40:21.914Z,0.68
2022-12-01T04:44:23.986Z,0.57
2022-12-01T04:48:26.097Z,0.62
2022-12-01T04:52:33.633Z,0.67
2022-12-01T04:56:37.312Z,0.70
2022-12-01T05:00:39.500Z,0.66
2022-12-01T05:04:42.256Z,0.65
2022-12-01T05:08:45.001Z,0.69
2022-12-01T05:12:47.157Z,0.62
2022-12-01T05:16:49.396Z,0.72
2022-12-01T05:20:57.961Z,0.79
2022-12-01T05:25:01.138Z,0.81
2022-12-01T05:29:04.061Z,0.78
2022-12-01T05:33:06.164Z,0.77
2022-12-01T05:37:08.564Z,0.69
2022-12-01T05:41:11.553Z,0.69
2022-12-01T05:45:13.644Z,0.57
2022-12-01T05:49:15.811Z,0.48
2022-12-01T05:53:19.249Z,0.53
2022-12-01T05:57:21.387Z,0.64
2022-12-01T06:01:23.495Z,0.61
2022-12-01T06:05:25.666Z,0.70
2022-12-01T06:09:27.751Z,0.63
2022-12-01T06:13:29.836Z,0.57
2022-12-01T06:17:34.621Z,0.67
2022-12-01T06:21:41.572Z,0.67
2022-12-01T06:25:44.085Z,0.74
2022-12-01T06:29:46.148Z,0.82
2022-12-01T06:33:48.913Z,0.88
2022-12-01T06:37:54.437Z,0.88
2022-12-01T06:41:56.519Z,1.08
2022-12-01T06:46:01.966Z,1.11
2022-12-01T06:50:08.952Z,1.29
2022-12-01T06:54:14.653Z,1.34
2022-12-01T06:58:17.061Z,1.36
2022-12-01T07:02:20.198Z,1.49
2022-12-01T07:06:22.637Z,1.57
2022-12-01T07:10:24.670Z,1.64
2022-12-01T07:14:28.045Z,1.78
2022-12-01T07:18:30.525Z,1.96
2022-12-01T07:22:33.132Z,2.18
2022-12-01T07:26:35.472Z,2.37
2022-12-01T07:30:37.567Z,2.57
2022-12-01T07:34:40.083Z,2.69
2022-12-01T07:38:42.580Z,2.85
2022-12-01T07:42:44.737Z,3.00
2022-12-01T07:46:47.463Z,3.18
2022-12-01T07:50:49.585Z,3.33
2022-12-01T07:54:52.770Z,3.43
2022-12-01T07:58:55.160Z,3.60
2022-12-01T08:02:57.280Z,3.69
2022-12-01T08:06:59.495Z,3.92
2022-12-01T08:11:07.062Z,4.10
2022-12-01T08:15:09.624Z,4.32
2022-12-01T08:19:12.052Z,4.47
2022-12-01T08:23:14.094Z,4.65
2022-12-01T08:27:16.165Z,4.82
2022-12-01T08:31:30.355Z,5.04
2022-12-01T08:35:35.777Z,5.17
2022-12-01T08:39:41.003Z,5.32
2022-12-01T08:44:01.111Z,5.39
2022-12-01T08:48:03.935Z,5.63
2022-12-01T08:52:06.217Z,5.79
2022-12-01T08:56:12.676Z,5.91
2022-12-01T09:00:15.672Z,6.01
2022-12-01T09:04:22.825Z,6.14
2022-12-01T09:08:35.522Z,6.28
2022-12-01T09:12:39.089Z,6.39
2022-12-01T09:16:42.968Z,6.55
2022-12-01T09:20:45.052Z,6.73
2022-12-01T09:24:47.860Z,6.99
2022-12-01T09:28:54.206Z,7.38
2022-12-01T09:32:56.433Z,7.71
2022-12-01T09:36:58.972Z,8.03
2022-12-01T09:41:05.944Z,8.18
2022-12-01T09:45:18.945Z,8.28
2022-12-01T09:49:25.406Z,8.37
2022-12-01T09:53:29.757Z,8.60
2022-12-01T09:57:33.751Z,8.69
2022-12-01T10:01:43.047Z,8.75
2022-12-01T10:06:18.641Z,8.86
2022-12-01T10:10:25.049Z,8.96
2022-12-01T10:14:29.843Z,9.13
2022-12-01T10:19:01.391Z,9.16
2022-12-01T10:23:25.207Z,9.21
2022-12-01T10:27:30.423Z,9.38
2022-12-01T10:31:39.278Z,9.56
2022-12-01T10:35:41.911Z,9.69
2022-12-01T10:39:46.668Z,9.81
2022-12-01T10:43:52.251Z,9.70
2022-12-01T10:48:15.400Z,9.68
2022-12-01T10:52:40.686Z,9.64
2022-12-01T10:56:47.876Z,9.60
2022-12-01T11:01:03.653Z,9.63
2022-12-01T11:05:22.685Z,9.75
2022-12-01T11:09:28.622Z,9.90
2022-12-01T11:13:35.119Z,10.11
2022-12-01T11:17:42.274Z,10.15
2022-12-01T11:21:53.386Z,10.05
2022-12-01T11:26:00.388Z,10.29
2022-12-01T11:30:06.855Z,10.24
2022-12-01T11:34:38.844Z,10.20
2022-12-01T11:38:40.960Z,10.36
2022-12-01T11:42:49.923Z,10.55
2022-12-01T11:47:07.861Z,10.62
2022-12-01T11:51:20.618Z,10.39
2022-12-01T11:55:28.673Z,10.26
2022-12-01T11:59:30.682Z,10.37
2022-12-01T12:03:43.264Z,10.23
2022-12-01T12:08:05.819Z,10.44
2022-12-01T12:12:16.873Z,10.52
2022-12-01T12:16:26.376Z,10.22
2022-12-01T12:20:52.139Z,10.04
2022-12-01T12:25:13.634Z,9.80
2022-12-01T12:29:42.372Z,9.92
2022-12-01T12:34:11.311Z,9.95
2022-12-01T12:38:54.800Z,10.07
2022-12-01T12:43:30.532Z,10.21
2022-12-01T12:48:03.269Z,10.17
2022-12-01T12:52:10.822Z,10.33
2022-12-01T12:56:17.234Z,10.36
2022-12-01T13:00:23.593Z,10.34
2022-12-01T13:04:45.550Z,10.21
2022-12-01T13:08:56.215Z,10.28
2022-12-01T13:13:24.984Z,10.33
2022-12-01T13:17:52.227Z,10.35
2022-12-01T13:21:55.973Z,10.53
2022-12-01T13:26:01.369Z,10.55
2022-12-01T13:30:04.315Z,10.62
2022-12-01T13:34:06.598Z,10.50
2022-12-01T13:38:30.370Z,10.33
2022-12-01T13:42:34.614Z,10.24
2022-12-01T13:46:42.855Z,10.10
2022-12-01T13:50:47.611Z,10.02
2022-12-01T13:55:03.990Z,10.12
2022-12-01T14:00:03.551Z,10.16
2022-12-01T14:04:38.024Z,10.04
2022-12-01T14:08:49.386Z,10.01
2022-12-01T14:12:54.445Z,9.78
2022-12-01T14:17:01.050Z,9.70
2022-12-01T14:21:11.511Z,9.61
2022-12-01T14:25:25.804Z,9.54
2022-12-01T14:29:43.080Z,9.47
2022-12-01T14:34:07.416Z,9.43
2022-12-01T14:38:11.148Z,9.40
2022-12-01T14:42:52.595Z,9.28
2022-12-01T14:47:02.414Z,9.15
2022-12-01T14:51:27.655Z,9.05
2022-12-01T14:55:43.697Z,9.02
2022-12-01T14:59:46.084Z,9.03
2022-12-01T15:03:52.071Z,8.91
2022-12-01T15:08:40.124Z,8.84
2022-12-01T15:12:35.653Z,8.76
2022-12-01T15:16:43.585Z,8.69
2022-12-01T15:20:47.912Z,8.56
2022-12-01T15:24:51.828Z,8.39
2022-12-01T15:29:18.080Z,8.23
2022-12-01T15:33:37.032Z,8.05
2022-12-01T15:37:43.387Z,7.88
2022-12-01T15:41:53.879Z,7.74
2022-12-01T15:46:02.235Z,7.60
2022-12-01T15:50:06.273Z,7.41
2022-12-01T15:54:20.992Z,7.32
2022-12-01T15:58:26.428Z,7.21
2022-12-01T16:02:31.984Z,7.05
2022-12-01T16:06:37.067Z,6.94
2022-12-01T16:10:39.254Z,6.84
2022-12-01T16:14:52.900Z,6.70
2022-12-01T16:19:00.542Z,6.63
2022-12-01T16:23:05.520Z,6.49
2022-12-01T16:27:22.048Z,6.41
2022-12-01T16:31:26.285Z,6.27
2022-12-01T16:35:31.563Z,6.04
2022-12-01T16:39:33.572Z,5.79
2022-12-01T16:43:35.697Z,5.80
2022-12-01T16:47:37.812Z,5.65
2022-12-01T16:51:55.266Z,5.56
2022-12-01T16:56:00.930Z,5.48
2022-12-01T17:00:03.592Z,5.49
2022-12-01T17:04:07.713Z,5.39
2022-12-01T17:08:10.185Z,5.38
2022-12-01T17:12:12.387Z,5.26
2022-12-01T17:16:18.431Z,5.20
2022-12-01T17:20:20.960Z,5.12
2022-12-01T17:24:23.516Z,5.03
2022-12-01T17:28:25.998Z,4.98
2022-12-01T17:32:28.586Z,4.93
2022-12-01T17:36:30.742Z,4.90
2022-12-01T17:40:32.805Z,4.91
2022-12-01T17:44:35.539Z,4.91
2022-12-01T17:48:39.503Z,4.78
2022-12-01T17:52:41.758Z,4.71
2022-12-01T17:56:43.963Z,4.72
2022-12-01T18:00:46.087Z,4.46
2022-12-01T18:04:48.428Z,4.51
2022-12-01T18:08:50.885Z,4.40
2022-12-01T18:12:53.021Z,4.35
2022-12-01T18:16:55.319Z,4.19
2022-12-01T18:20:57.397Z,4.14
2022-12-01T18:24:59.531Z,4.01
2022-12-01T18:29:07.736Z,4.00
2022-12-01T18:33:12.448Z,3.91
2022-12-01T18:37:15.435Z,3.86
2022-12-01T18:41:30.438Z,3.79
2022-12-01T18:45:33.497Z,3.64
2022-12-01T18:49:38.914Z,3.55
2022-12-01T18:53:45.561Z,3.58
2022-12-01T18:57:53.032Z,3.53
2022-12-01T19:01:57.502Z,3.39
2022-12-01T19:05:59.826Z,3.24
2022-12-01T19:15:36.596Z,3.12
2022-12-01T19:19:46.335Z,3.05
2022-12-01T19:23:48.816Z,3.02
2022-12-01T19:27:53.383Z,2.84
2022-12-01T19:31:55.560Z,2.89
2022-12-01T19:35:57.621Z,2.82
2022-12-01T19:40:00.513Z,2.73
2022-12-01T19:44:02.788Z,2.58
2022-12-01T19:48:06.141Z,2.59
2022-12-01T19:52:08.467Z,2.47
2022-12-01T19:56:10.517Z,2.44
2022-12-01T20:00:13.078Z,2.54
2022-12-01T20:04:16.471Z,2.56
2022-12-01T20:08:19.741Z,2.45
2022-12-01T20:12:21.914Z,2.48
2022-12-01T20:16:26.805Z,2.48
2022-12-01T20:20:29.399Z,2.40
2022-12-01T20:24:31.682Z,2.31
2022-12-01T20:28:36.065Z,2.32
2022-12-01T20:32:38.184Z,2.37
2022-12-01T20:36:40.898Z,2.40
2022-12-01T20:40:43.496Z,2.33
2022-12-01T20:44:47.659Z,2.17
2022-12-01T20:48:50.309Z,2.12
2022-12-01T20:52:52.581Z,2.18
2022-12-01T20:56:54.795Z,2.14
2022-12-01T21:00:57.023Z,2.17
2022-12-01T21:04:59.586Z,1.96
2022-12-01T21:09:03.174Z,2.05
2022-12-01T21:13:41.801Z,2.06
2022-12-01T21:18:01.000Z,2.05
2022-12-01T21:22:10.247Z,2.09
2022-12-01T21:26:16.403Z,2.02
2022-12-01T21:30:26.210Z,2.03
2022-12-01T21:34:29.579Z,1.90
2022-12-01T21:38:32.051Z,1.91
2022-12-01T21:42:36.974Z,1.85
2022-12-01T21:46:42.538Z,1.88
2022-12-01T21:50:50.949Z,1.91
2022-12-01T21:55:29.395Z,1.92
2022-12-01T21:59:32.474Z,1.80
2022-12-01T22:03:39.774Z,1.87
2022-12-01T22:07:41.948Z,1.72
2022-12-01T22:11:48.221Z,1.78
2022-12-01T22:15:52.790Z,1.62
2022-12-01T22:20:01.393Z,1.70
2022-12-01T22:24:09.532Z,1.72
2022-12-01T22:28:19.999Z,1.62
2022-12-01T22:32:33.105Z,1.51
2022-12-01T22:36:35.126Z,1.53
2022-12-01T22:40:47.835Z,1.52
2022-12-01T22:44:50.140Z,1.56
2022-12-01T22:48:55.712Z,1.47
2022-12-01T22:53:06.534Z,1.40
2022-12-01T22:57:17.520Z,1.52
2022-12-01T23:01:28.086Z,1.49
2022-12-01T23:05:31.012Z,1.19
2022-12-01T23:09:37.850Z,1.25
2022-12-01T23:13:39.912Z,1.25
2022-12-01T23:17:41.932Z,1.17
2022-12-01T23:21:44.226Z,1.06
2022-12-01T23:25:49.349Z,1.04
2022-12-01T23:29:51.502Z,1.17
2022-12-01T23:33:53.680Z,1.19
2022-12-01T23:37:55.974Z,1.00
2022-12-01T23:41:59.015Z,1.13
2022-12-01T23:46:11.698Z,1.13
2022-12-01T23:50:20.251Z,1.07
2022-12-01T23:54:29.592Z,0.98
2022-12-01T23:58:31.885Z,1.03
